Time;durP1;ratioP1;P1;durP2;ratioP2;P2;SDS_P1;SDS_P2;PMS_P1;PMS_P2;Temp;Humidity;BMP_temperature;BMP_pressure;BME280_temperature;BME280_humidity;BME280_pressure;Samples;Min_cycle;Max_cycle;Signal;HPM_P1;HPM_P2
2022/10/02 00:02:28;;;;;;;;;;;;;;;17.73;74.80;100061.70;1689859;85;27386;-60
2022/10/02 00:05:07;;;;;;;;;;;;;;;17.75;74.44;100043.31;1689909;85;25463;-61
2022/10/02 00:07:49;;;;;;;;;;;;;;;17.77;74.82;100045.31;1689746;85;25717;-60
2022/10/02 00:10:19;;;;;;;;;;;;;;;17.81;75.00;100047.94;1689918;85;26105;-59
2022/10/02 00:12:48;;;;;;;;;;;;;;;17.82;74.41;100053.70;1689803;84;26168;-60
2022/10/02 00:15:17;;;;;;;;;;;;;;;17.83;74.56;100077.15;1689798;85;27534;-60
2022/10/02 00:17:46;;;;;;;;;;;;;;;17.82;74.64;100078.72;1689678;85;25713;-60
2022/10/02 00:20:18;;;;;;;;;;;;;;;17.78;74.46;100072.84;1690138;85;25472;-60
2022/10/02 00:22:48;;;;;;;;;;;;;;;17.80;74.46;100068.02;1689830;85;26211;-59
2022/10/02 00:25:41;;;;;;;;;;;;;;;17.83;74.54;100064.91;1688042;84;25989;-60
2022/10/02 00:28:20;;;;;;;;;;;;;;;17.84;74.15;100069.31;1688822;85;27616;-61
2022/10/02 00:31:08;;;;;;;;;;;;;;;17.83;73.90;100066.27;1689315;84;25810;-60
2022/10/02 00:33:58;;;;;;;;;;;;;;;17.83;73.99;100055.38;1690522;85;25510;-59
2022/10/02 00:36:37;;;;;;;;;;;;;;;17.82;74.72;100037.37;1689813;84;26115;-59
2022/10/02 00:39:16;;;;;;;;;;;;;;;17.74;75.16;100041.63;1685023;84;25722;-60
2022/10/02 00:41:55;;;;;;;;;;;;;;;17.56;75.79;100043.53;1683494;84;27556;-60
2022/10/02 00:44:32;;;;;;;;;;;;;;;17.41;75.69;100050.94;1683554;85;25756;-60
2022/10/02 00:47:05;;;;;;;;;;;;;;;17.41;76.04;100053.16;1683718;85;25810;-60
2022/10/02 00:49:44;;;;;;;;;;;;;;;17.41;76.26;100038.20;1688136;84;26090;-60
2022/10/02 00:52:34;;;;;;;;;;;;;;;17.46;76.11;100037.08;1689957;85;27425;-60
2022/10/02 00:55:28;;;;;;;;;;;;;;;17.47;76.02;100033.85;1691155;84;27450;-61
2022/10/02 00:58:15;;;;;;;;;;;;;;;17.48;76.37;100051.31;1690583;84;27317;-60
2022/10/02 01:00:45;;;;;;;;;;;;;;;17.48;75.90;100047.23;1690897;84;25797;-60
2022/10/02 01:03:23;;;;;;;;;;;;;;;17.48;76.19;100050.49;1692266;84;26195;-61
2022/10/02 01:05:50;;;;;;;;;;;;;;;17.50;76.49;100050.61;1692698;84;25650;-60
2022/10/02 01:08:16;;;;;;;;;;;;;;;17.52;76.65;100055.33;1662878;84;28312;-61
2022/10/02 01:10:43;;;;;;;;;;;;;;;17.56;76.90;100058.98;1692424;84;25437;-61
2022/10/02 01:13:09;;;;;;;;;;;;;;;17.59;77.07;100051.27;1692393;84;25815;-61
2022/10/02 01:15:39;;;;;;;;;;;;;;;17.59;76.63;100056.70;1687940;84;26142;-60
2022/10/02 01:18:06;;;;;;;;;;;;;;;17.57;75.98;100043.82;1687121;85;25748;-60
2022/10/02 01:20:40;;;;;;;;;;;;;;;17.56;76.48;100046.25;1687333;85;28310;-60
2022/10/02 01:23:11;;;;;;;;;;;;;;;17.56;77.23;100044.89;1687053;85;25784;-60
2022/10/02 01:25:37;;;;;;;;;;;;;;;17.53;77.05;100037.13;1687020;84;25538;-60
2022/10/02 01:28:04;;;;;;;;;;;;;;;17.57;77.27;100034.84;1687234;84;26109;-60
2022/10/02 01:30:32;;;;;;;;;;;;;;;17.59;77.17;100048.55;1692962;84;25793;-60
2022/10/02 01:33:01;;;;;;;;;;;;;;;17.62;76.89;100050.88;1688139;84;28350;-61
2022/10/02 01:35:33;;;;;;;;;;;;;;;17.63;76.88;100051.70;1688410;85;25823;-60
2022/10/02 01:38:03;;;;;;;;;;;;;;;17.62;76.67;100060.90;1688363;83;25741;-61
2022/10/02 01:40:32;;;;;;;;;;;;;;;17.61;76.58;100043.76;1693671;83;26270;-60
2022/10/02 01:43:08;;;;;;;;;;;;;;;17.57;76.83;100041.64;1690787;85;25765;-60
2022/10/02 01:45:47;;;;;;;;;;;;;;;17.48;77.11;100041.80;1690835;85;27744;-60
2022/10/02 01:48:23;;;;;;;;;;;;;;;17.42;77.24;100042.61;1690431;85;25744;-61
2022/10/02 01:50:59;;;;;;;;;;;;;;;17.42;77.61;100042.61;1687261;85;26061;-62
2022/10/02 01:53:41;;;;;;;;;;;;;;;17.45;77.60;100052.23;1677428;85;26195;-61
2022/10/02 01:56:20;;;;;;;;;;;;;;;17.47;77.62;100059.15;1677075;85;25726;-60
2022/10/02 01:59:04;;;;;;;;;;;;;;;17.41;77.33;100060.45;1676866;85;27499;-60
2022/10/02 02:01:34;;;;;;;;;;;;;;;17.39;78.92;100055.23;1643131;86;25582;-60
2022/10/02 02:04:20;;;;;;;;;;;;;;;17.26;78.73;100045.11;1676175;85;25519;-60
2022/10/02 02:07:09;;;;;;;;;;;;;;;17.24;78.83;100050.42;1677191;85;26209;-60
2022/10/02 02:09:45;;;;;;;;;;;;;;;17.21;78.79;100040.27;1678513;85;25762;-61
2022/10/02 02:12:24;;;;;;;;;;;;;;;17.21;78.97;100036.72;1678453;85;27477;-61
2022/10/02 02:14:53;;;;;;;;;;;;;;;17.16;79.27;100034.59;1678585;85;26063;-61
2022/10/02 02:17:24;;;;;;;;;;;;;;;17.07;79.54;100033.06;1678352;85;25702;-62
2022/10/02 02:19:53;;;;;;;;;;;;;;;16.95;78.55;100031.37;1678842;85;26301;-61
2022/10/02 02:22:28;;;;;;;;;;;;;;;16.89;78.84;100034.34;1678439;85;25840;-61
2022/10/02 02:25:09;;;;;;;;;;;;;;;16.93;79.01;100031.22;1678659;85;27510;-59
2022/10/02 02:27:38;;;;;;;;;;;;;;;16.98;79.36;100023.37;1676838;85;25792;-60
2022/10/02 02:30:07;;;;;;;;;;;;;;;17.04;79.35;100022.57;1676492;85;25733;-60
2022/10/02 02:32:36;;;;;;;;;;;;;;;17.11;79.51;100032.14;1660861;86;25937;-60
2022/10/02 02:35:16;;;;;;;;;;;;;;;17.10;79.89;100035.36;1667272;85;25877;-59
2022/10/02 02:37:42;;;;;;;;;;;;;;;17.11;79.69;100033.50;1678243;85;27494;-61
2022/10/02 02:40:18;;;;;;;;;;;;;;;17.14;79.54;100038.52;1689788;84;26280;-60
2022/10/02 02:42:54;;;;;;;;;;;;;;;17.15;79.57;100035.62;1690264;85;25709;-60
2022/10/02 02:45:23;;;;;;;;;;;;;;;17.16;79.04;100045.97;1688992;84;26246;-60
2022/10/02 02:47:55;;;;;;;;;;;;;;;17.17;78.91;100043.04;1690191;84;25739;-60
2022/10/02 02:50:37;;;;;;;;;;;;;;;17.18;79.22;100046.08;1690355;84;27443;-60
2022/10/02 02:53:24;;;;;;;;;;;;;;;17.16;79.07;100040.53;1687099;85;25921;-60
2022/10/02 02:55:56;;;;;;;;;;;;;;;17.20;79.07;100044.55;1687511;85;25870;-59
2022/10/02 02:58:36;;;;;;;;;;;;;;;17.20;79.23;100055.42;1677631;84;26297;-60
2022/10/02 03:01:02;;;;;;;;;;;;;;;17.20;79.24;100053.53;1676501;85;25712;-60
2022/10/02 03:03:29;;;;;;;;;;;;;;;17.20;79.07;100056.78;1676447;85;27653;-60
2022/10/02 03:05:59;;;;;;;;;;;;;;;17.18;78.76;100048.80;1676594;85;26436;-61
2022/10/02 03:08:31;;;;;;;;;;;;;;;17.16;78.55;100059.05;1675638;85;25784;-62
2022/10/02 03:11:30;;;;;;;;;;;;;;;17.18;78.75;100053.41;1656303;85;25807;-61
2022/10/02 03:14:08;;;;;;;;;;;;;;;17.18;79.42;100053.41;1680454;85;26131;-59
2022/10/02 03:17:08;;;;;;;;;;;;;;;17.16;79.47;100048.18;1680415;85;27561;-61
2022/10/02 03:19:53;;;;;;;;;;;;;;;17.20;78.97;100045.91;1681899;85;25766;-60
2022/10/02 03:22:55;;;;;;;;;;;;;;;17.17;79.00;100055.80;1681866;85;25723;-60
2022/10/02 03:25:25;;;;;;;;;;;;;;;17.18;79.35;100059.67;1681778;85;26160;-61
2022/10/02 03:27:56;;;;;;;;;;;;;;;17.17;79.67;100053.08;1682014;85;25819;-61
2022/10/02 03:30:23;;;;;;;;;;;;;;;17.18;79.60;100049.33;1682070;84;27559;-60
2022/10/02 03:32:52;;;;;;;;;;;;;;;17.20;79.56;100050.81;1672408;85;25499;-60
2022/10/02 03:35:20;;;;;;;;;;;;;;;17.21;79.64;100046.23;1672153;85;25801;-61
2022/10/02 03:37:50;;;;;;;;;;;;;;;17.23;79.55;100056.89;1672419;85;26027;-60
2022/10/02 03:40:17;;;;;;;;;;;;;;;17.23;79.45;100048.74;1654422;86;25709;-61
2022/10/02 03:42:43;;;;;;;;;;;;;;;17.25;79.59;100050.22;1655404;86;27632;-60
2022/10/02 03:45:10;;;;;;;;;;;;;;;17.26;79.61;100059.23;1654225;86;25786;-61
2022/10/02 03:47:36;;;;;;;;;;;;;;;17.27;79.68;100068.53;1667303;85;26315;-61
2022/10/02 03:50:04;;;;;;;;;;;;;;;17.29;79.51;100076.48;1676577;85;26112;-61
2022/10/02 03:52:31;;;;;;;;;;;;;;;17.28;79.12;100070.72;1676659;85;25777;-61
2022/10/02 03:55:01;;;;;;;;;;;;;;;17.23;78.69;100082.72;1676415;85;27494;-60
2022/10/02 03:57:28;;;;;;;;;;;;;;;17.19;79.13;100083.09;1675962;85;25776;-60
2022/10/02 03:59:58;;;;;;;;;;;;;;;17.17;79.15;100082.45;1688439;84;26496;-60
2022/10/02 04:02:37;;;;;;;;;;;;;;;17.18;79.46;100084.66;1689710;84;26123;-60
2022/10/02 04:05:20;;;;;;;;;;;;;;;17.18;79.54;100095.00;1689571;84;25507;-60
2022/10/02 04:07:50;;;;;;;;;;;;;;;17.13;79.32;100090.69;1685006;84;27572;-60
2022/10/02 04:10:26;;;;;;;;;;;;;;;17.13;79.71;100095.27;1680471;85;25760;-61
2022/10/02 04:12:58;;;;;;;;;;;;;;;17.15;79.68;100101.35;1680468;85;25717;-60
2022/10/02 04:15:28;;;;;;;;;;;;;;;17.14;79.84;100109.17;1680351;85;26203;-60
2022/10/02 04:18:01;;;;;;;;;;;;;;;17.15;79.78;100114.44;1680597;85;25722;-61
2022/10/02 04:20:34;;;;;;;;;;;;;;;17.05;79.89;100123.44;1680663;85;27545;-60
2022/10/02 04:23:03;;;;;;;;;;;;;;;16.98;80.43;100129.33;1678986;85;25806;-60
2022/10/02 04:25:33;;;;;;;;;;;;;;;16.88;80.47;100131.82;1670187;85;25588;-60
2022/10/02 04:28:09;;;;;;;;;;;;;;;16.79;80.53;100142.48;1667621;85;26098;-60
2022/10/02 04:30:35;;;;;;;;;;;;;;;16.77;80.84;100147.26;1675363;84;25774;-60
2022/10/02 04:33:14;;;;;;;;;;;;;;;16.80;80.73;100152.32;1667747;84;27647;-60
2022/10/02 04:36:05;;;;;;;;;;;;;;;16.86;81.16;100153.39;1664628;85;25540;-60
2022/10/02 04:39:07;;;;;;;;;;;;;;;16.88;82.18;100163.56;1678281;84;25771;-60
2022/10/02 04:41:58;;;;;;;;;;;;;;;16.86;82.24;100173.27;1659416;86;26898;-61
2022/10/02 04:44:52;;;;;;;;;;;;;;;16.89;81.17;100172.89;1659434;86;25793;-61
2022/10/02 04:47:28;;;;;;;;;;;;;;;16.83;80.82;100185.87;1659605;86;27582;-60
2022/10/02 04:50:16;;;;;;;;;;;;;;;16.77;79.79;100187.14;1659195;86;25764;-59
2022/10/02 04:53:01;;;;;;;;;;;;;;;16.73;79.41;100191.62;1676713;84;25907;-59
2022/10/02 04:55:46;;;;;;;;;;;;;;;16.71;78.87;100199.11;1682543;85;26096;-60
2022/10/02 04:58:37;;;;;;;;;;;;;;;16.67;78.20;100205.11;1678836;85;25886;-61
2022/10/02 05:01:19;;;;;;;;;;;;;;;16.67;78.16;100215.48;1676530;85;27539;-60
2022/10/02 05:03:49;;;;;;;;;;;;;;;16.64;77.86;100210.91;1676844;85;25716;-62
2022/10/02 05:06:28;;;;;;;;;;;;;;;16.62;77.67;100213.00;1676627;85;25724;-59
2022/10/02 05:09:04;;;;;;;;;;;;;;;16.59;77.51;100207.41;1677023;85;26152;-60
2022/10/02 05:11:56;;;;;;;;;;;;;;;16.57;77.07;100208.97;1676745;85;25809;-60
2022/10/02 05:14:38;;;;;;;;;;;;;;;16.55;76.67;100215.09;1672586;85;27489;-60
2022/10/02 05:17:23;;;;;;;;;;;;;;;16.50;76.36;100228.41;1668188;85;25811;-59
2022/10/02 05:20:11;;;;;;;;;;;;;;;16.48;75.95;100229.11;1671842;84;26445;-59
2022/10/02 05:22:53;;;;;;;;;;;;;;;16.41;75.97;100243.11;1670778;85;26159;-61
2022/10/02 05:25:33;;;;;;;;;;;;;;;16.43;75.84;100245.13;1667793;85;25786;-60
2022/10/02 05:28:20;;;;;;;;;;;;;;;16.46;75.97;100251.52;1671077;85;27611;-61
2022/10/02 05:31:12;;;;;;;;;;;;;;;16.39;75.00;100253.30;1687274;85;26249;-61
2022/10/02 05:34:05;;;;;;;;;;;;;;;16.33;74.44;100259.48;1690074;84;25339;-60
2022/10/02 05:36:39;;;;;;;;;;;;;;;16.26;74.78;100252.11;1690007;85;26215;-61
2022/10/02 05:39:17;;;;;;;;;;;;;;;16.30;74.83;100253.06;1694098;84;27349;-59
2022/10/02 05:41:54;;;;;;;;;;;;;;;16.19;72.43;100259.28;1699359;84;28265;-61
2022/10/02 05:44:38;;;;;;;;;;;;;;;16.08;71.23;100256.52;1696158;84;25618;-60
2022/10/02 05:47:14;;;;;;;;;;;;;;;15.98;70.54;100262.72;1676883;85;25723;-61
2022/10/02 05:49:54;;;;;;;;;;;;;;;15.95;70.81;100267.17;1672111;85;26177;-59
2022/10/02 05:52:27;;;;;;;;;;;;;;;15.89;70.17;100272.81;1672235;85;26079;-62
2022/10/02 05:55:00;;;;;;;;;;;;;;;15.89;69.90;100293.16;1673384;85;29589;-61
2022/10/02 05:57:36;;;;;;;;;;;;;;;15.81;68.63;100275.05;1675009;83;25694;-60
2022/10/02 06:00:10;;;;;;;;;;;;;;;15.83;69.58;100283.52;1676526;85;25696;-61
2022/10/02 06:02:48;;;;;;;;;;;;;;;15.88;69.27;100286.54;1668011;85;26113;-60
2022/10/02 06:05:17;;;;;;;;;;;;;;;15.88;69.59;100296.03;1652824;86;25804;-61
2022/10/02 06:07:46;;;;;;;;;;;;;;;15.89;69.47;100295.88;1641829;86;27581;-60
2022/10/02 06:10:28;;;;;;;;;;;;;;;15.85;69.32;100307.27;1673545;85;26338;-60
2022/10/02 06:13:04;;;;;;;;;;;;;;;15.92;69.61;100298.73;1668387;85;26221;-60
2022/10/02 06:15:43;;;;;;;;;;;;;;;15.88;69.02;100311.81;1671858;85;26993;-59
2022/10/02 06:18:13;;;;;;;;;;;;;;;15.79;68.57;100307.45;1640352;85;26512;-60
2022/10/02 06:20:49;;;;;;;;;;;;;;;15.71;68.60;100317.00;1669772;85;27544;-61
2022/10/02 06:23:21;;;;;;;;;;;;;;;15.74;69.07;100331.05;1677369;85;25808;-60
2022/10/02 06:25:57;;;;;;;;;;;;;;;15.73;69.17;100334.77;1682062;85;25816;-61
2022/10/02 06:28:35;;;;;;;;;;;;;;;15.72;68.70;100343.93;1677058;85;26240;-60
2022/10/02 06:31:11;;;;;;;;;;;;;;;15.72;68.60;100356.66;1669137;84;25838;-60
2022/10/02 06:33:38;;;;;;;;;;;;;;;15.78;68.99;100372.20;1665142;85;27520;-60
2022/10/02 06:36:17;;;;;;;;;;;;;;;15.74;68.67;100400.69;1671572;85;25779;-61
2022/10/02 06:39:07;;;;;;;;;;;;;;;15.58;68.33;100397.06;1685088;83;25742;-60
2022/10/02 06:42:12;;;;;;;;;;;;;;;15.45;69.05;100404.42;1716248;83;26111;-60
2022/10/02 06:45:16;;;;;;;;;;;;;;;15.43;68.86;100415.11;1716435;83;25801;-60
2022/10/02 06:47:58;;;;;;;;;;;;;;;15.54;69.18;100414.72;1707465;83;27497;-61
2022/10/02 06:50:41;;;;;;;;;;;;;;;15.58;68.89;100417.92;1671696;85;25922;-59
2022/10/02 06:53:17;;;;;;;;;;;;;;;15.57;68.81;100422.48;1674243;85;25867;-59
2022/10/02 06:56:21;;;;;;;;;;;;;;;15.58;68.02;100415.21;1666669;85;26860;-60
2022/10/02 06:59:22;;;;;;;;;;;;;;;15.54;67.08;100431.48;1674870;85;25748;-60
2022/10/02 07:02:24;;;;;;;;;;;;;;;15.37;67.21;100419.37;1623718;87;28676;-61
2022/10/02 07:04:54;;;;;;;;;;;;;;;15.43;67.61;100427.31;1623638;87;25978;-60
2022/10/02 07:07:30;;;;;;;;;;;;;;;15.44;67.10;100429.00;1652779;85;25835;-59
2022/10/02 07:10:21;;;;;;;;;;;;;;;15.42;67.08;100437.29;1671116;85;26113;-59
2022/10/02 07:13:01;;;;;;;;;;;;;;;15.48;66.93;100436.60;1674733;85;25851;-61
2022/10/02 07:16:07;;;;;;;;;;;;;;;15.58;66.48;100431.48;1674594;85;27492;-60
2022/10/02 07:18:59;;;;;;;;;;;;;;;15.70;65.38;100435.45;1672448;85;25920;-61
2022/10/02 07:21:41;;;;;;;;;;;;;;;15.62;64.70;100437.72;1676452;84;25797;-59
2022/10/02 07:24:27;;;;;;;;;;;;;;;15.58;64.85;100453.16;1673633;85;26252;-60
2022/10/02 07:27:00;;;;;;;;;;;;;;;15.61;64.23;100455.02;1677279;85;25757;-61
2022/10/02 07:29:32;;;;;;;;;;;;;;;15.76;64.54;100459.17;1676420;85;28322;-61
2022/10/02 07:32:11;;;;;;;;;;;;;;;15.85;63.76;100462.70;1675569;85;26158;-61
2022/10/02 07:35:01;;;;;;;;;;;;;;;15.92;64.00;100459.59;1677099;85;25721;-60
2022/10/02 07:37:44;;;;;;;;;;;;;;;15.93;64.20;100459.94;1677027;85;26112;-60
2022/10/02 07:40:27;;;;;;;;;;;;;;;15.87;62.21;100464.73;1713921;83;25755;-60
2022/10/02 07:42:58;;;;;;;;;;;;;;;15.89;63.18;100464.54;1714592;83;27654;-60
2022/10/02 07:45:27;;;;;;;;;;;;;;;15.91;62.79;100459.27;1714348;83;25747;-61
2022/10/02 07:48:06;;;;;;;;;;;;;;;15.93;62.16;100464.00;1714817;83;25603;-61
2022/10/02 07:50:36;;;;;;;;;;;;;;;16.02;61.83;100477.52;1691735;83;26887;-60
2022/10/02 07:53:16;;;;;;;;;;;;;;;15.99;60.97;100470.59;1679722;85;25726;-61
2022/10/02 07:55:47;;;;;;;;;;;;;;;15.99;61.14;100471.11;1689702;84;27514;-60
2022/10/02 07:58:30;;;;;;;;;;;;;;;15.95;61.27;100476.05;1689880;83;25676;-60
2022/10/02 08:01:02;;;;;;;;;;;;;;;15.90;61.17;100485.22;1687341;85;25492;-61
2022/10/02 08:03:44;;;;;;;;;;;;;;;15.78;61.22;100484.75;1687162;84;26168;-60
2022/10/02 08:06:11;;;;;;;;;;;;;;;15.69;61.29;100479.86;1687750;84;25773;-60
2022/10/02 08:08:49;;;;;;;;;;;;;;;15.60;60.36;100484.50;1697707;84;29724;-60
2022/10/02 08:11:41;;;;;;;;;;;;;;;15.59;60.50;100468.42;1686888;84;25822;-60
2022/10/02 08:14:11;;;;;;;;;;;;;;;15.70;59.94;100482.08;1697777;84;26021;-60
2022/10/02 08:16:47;;;;;;;;;;;;;;;15.97;60.01;100478.05;1690475;84;26109;-60
2022/10/02 08:19:23;;;;;;;;;;;;;;;15.99;57.94;100481.44;1693083;84;25803;-60
2022/10/02 08:21:54;;;;;;;;;;;;;;;15.99;59.13;100481.96;1662951;84;28448;-61
2022/10/02 08:24:27;;;;;;;;;;;;;;;16.21;59.75;100478.94;1688293;84;26549;-61
2022/10/02 08:27:05;;;;;;;;;;;;;;;16.45;59.17;100491.45;1691502;84;25770;-61
2022/10/02 08:29:39;;;;;;;;;;;;;;;16.62;57.58;100484.03;1690619;84;26097;-61
2022/10/02 08:32:12;;;;;;;;;;;;;;;16.74;55.25;100485.78;1690876;84;26205;-59
2022/10/02 08:34:40;;;;;;;;;;;;;;;16.87;55.52;100482.44;1687078;84;27591;-62
2022/10/02 08:37:15;;;;;;;;;;;;;;;17.10;54.90;100487.02;1691931;84;25731;-60
2022/10/02 08:40:05;;;;;;;;;;;;;;;17.31;54.50;100476.22;1687794;84;25828;-60
2022/10/02 08:42:55;;;;;;;;;;;;;;;17.66;54.04;100471.55;1690519;84;26116;-61
2022/10/02 08:45:41;;;;;;;;;;;;;;;17.80;51.83;100515.56;1684255;84;25418;-60
2022/10/02 08:48:14;;;;;;;;;;;;;;;18.00;51.46;100502.75;1664428;84;28260;-61
2022/10/02 08:51:10;;;;;;;;;;;;;;;18.02;50.90;100461.75;1688904;84;25756;-60
2022/10/02 08:54:14;;;;;;;;;;;;;;;18.13;50.45;100488.44;1684302;84;25764;-61
2022/10/02 08:57:20;;;;;;;;;;;;;;;18.36;49.73;100469.20;1670323;85;26214;-60
2022/10/02 09:00:19;;;;;;;;;;;;;;;18.55;49.10;100481.83;1672486;85;25889;-60
2022/10/02 09:03:10;;;;;;;;;;;;;;;18.70;48.78;100477.66;1672767;85;28341;-61
2022/10/02 09:06:00;;;;;;;;;;;;;;;19.08;48.23;100467.28;1643455;85;25490;-60
2022/10/02 09:08:50;;;;;;;;;;;;;;;19.48;46.20;100483.56;1674868;85;25737;-61
2022/10/02 09:11:36;;;;;;;;;;;;;;;19.94;43.97;100455.64;1674682;85;26188;-60
2022/10/02 09:14:15;;;;;;;;;;;;;;;20.54;41.92;100486.80;1669459;85;25702;-60
2022/10/02 09:17:15;;;;;;;;;;;;;;;21.23;42.16;100473.76;1666073;85;29758;-60
2022/10/02 09:19:54;;;;;;;;;;;;;;;21.81;40.70;100477.05;1668160;85;25886;-60
2022/10/02 09:22:37;;;;;;;;;;;;;;;22.65;38.61;100478.33;1668773;85;25491;-61
2022/10/02 09:25:11;;;;;;;;;;;;;;;22.44;38.31;100462.25;1669315;85;26060;-60
2022/10/02 09:28:00;;;;;;;;;;;;;;;22.63;38.05;100478.25;1673133;85;25691;-60
2022/10/02 09:30:49;;;;;;;;;;;;;;;23.09;37.41;100445.41;1676572;85;27533;-60
2022/10/02 09:33:38;;;;;;;;;;;;;;;23.66;35.48;100475.11;1678469;85;25754;-59
2022/10/02 09:36:34;;;;;;;;;;;;;;;23.93;35.75;100457.73;1678420;85;26131;-60
2022/10/02 09:39:23;;;;;;;;;;;;;;;24.54;35.17;100473.65;1684079;84;27140;-60
2022/10/02 09:42:02;;;;;;;;;;;;;;;25.06;32.94;100446.00;1690177;85;25701;-61
2022/10/02 09:44:57;;;;;;;;;;;;;;;25.40;33.12;100461.91;1668586;85;27594;-60
2022/10/02 09:47:52;;;;;;;;;;;;;;;25.73;32.58;100444.66;1676442;85;25661;-61
2022/10/02 09:50:31;;;;;;;;;;;;;;;25.84;32.02;100459.49;1676734;85;25733;-61
2022/10/02 09:53:19;;;;;;;;;;;;;;;25.93;30.75;100455.27;1660170;85;26794;-60
2022/10/02 09:56:20;;;;;;;;;;;;;;;26.16;31.04;100442.46;1668963;85;26040;-61
2022/10/02 09:59:03;;;;;;;;;;;;;;;26.40;31.17;100461.64;1669828;85;27505;-61
2022/10/02 10:01:49;;;;;;;;;;;;;;;26.78;30.35;100446.82;1652706;85;27278;-60
2022/10/02 10:04:45;;;;;;;;;;;;;;;27.20;29.51;100434.44;1672439;85;25788;-61
2022/10/02 10:07:47;;;;;;;;;;;;;;;27.24;28.77;100417.64;1675649;85;26117;-61
2022/10/02 10:10:24;;;;;;;;;;;;;;;27.42;29.08;100433.06;1677132;85;25757;-61
2022/10/02 10:13:26;;;;;;;;;;;;;;;27.56;27.31;100418.34;1676955;85;27498;-61
2022/10/02 10:16:18;;;;;;;;;;;;;;;27.74;28.98;100426.83;1676690;85;25907;-61
2022/10/02 10:19:07;;;;;;;;;;;;;;;27.98;27.31;100414.06;1676669;85;25934;-60
2022/10/02 10:21:40;;;;;;;;;;;;;;;27.29;27.77;100416.34;1677130;85;26280;-60
2022/10/02 10:24:11;;;;;;;;;;;;;;;27.24;28.07;100420.40;1676851;85;25725;-60
2022/10/02 10:26:56;;;;;;;;;;;;;;;27.38;27.57;100427.75;1656307;85;27602;-59
2022/10/02 10:30:00;;;;;;;;;;;;;;;27.63;26.75;100445.22;1659646;83;25785;-62
2022/10/02 10:32:55;;;;;;;;;;;;;;;27.39;27.39;100437.16;1702697;83;26209;-61
2022/10/02 10:35:37;;;;;;;;;;;;;;;27.75;26.53;100429.31;1679873;85;26124;-61
2022/10/02 10:41:08;;;;;;;;;;;;;;;25.68;28.66;100463.03;1682310;85;27491;-61
2022/10/02 10:43:56;;;;;;;;;;;;;;;24.80;29.90;100446.80;1682241;85;25720;-60
2022/10/02 10:46:44;;;;;;;;;;;;;;;24.09;31.11;100469.15;1678304;85;25839;-61
2022/10/02 10:49:34;;;;;;;;;;;;;;;23.36;31.80;100454.74;1648710;87;26164;-61
2022/10/02 10:52:14;;;;;;;;;;;;;;;22.80;32.73;100469.77;1674786;85;26071;-61
2022/10/02 10:55:03;;;;;;;;;;;;;;;22.15;33.84;100472.73;1679241;85;27494;-62
2022/10/02 10:57:51;;;;;;;;;;;;;;;21.68;33.77;100490.79;1680240;85;25765;-60
2022/10/02 11:00:39;;;;;;;;;;;;;;;21.41;34.54;100474.43;1680166;85;25841;-60
2022/10/02 11:03:35;;;;;;;;;;;;;;;21.72;33.47;100490.13;1680709;85;26710;-60
2022/10/02 11:06:14;;;;;;;;;;;;;;;21.61;33.40;100462.06;1679621;85;25745;-61
2022/10/02 11:08:44;;;;;;;;;;;;;;;22.00;33.26;100458.00;1676889;85;28295;-59
2022/10/02 11:11:34;;;;;;;;;;;;;;;22.70;31.34;100443.89;1676342;85;25789;-60
2022/10/02 11:14:16;;;;;;;;;;;;;;;23.58;31.67;100457.03;1676734;85;25713;-61
2022/10/02 11:17:03;;;;;;;;;;;;;;;23.64;31.03;100458.02;1653897;85;26107;-61
2022/10/02 11:19:33;;;;;;;;;;;;;;;24.02;30.92;100443.99;1676852;85;25836;-61
2022/10/02 11:22:08;;;;;;;;;;;;;;;24.43;30.98;100448.34;1676079;85;27554;-60
2022/10/02 11:24:59;;;;;;;;;;;;;;;24.71;30.03;100435.84;1676246;85;25848;-60
2022/10/02 11:27:56;;;;;;;;;;;;;;;24.67;30.19;100437.35;1675189;85;25812;-61
2022/10/02 11:30:41;;;;;;;;;;;;;;;25.06;30.45;100446.00;1673166;84;26270;-60
2022/10/02 11:33:26;;;;;;;;;;;;;;;24.85;30.02;100429.58;1672617;85;25796;-61
2022/10/02 11:35:57;;;;;;;;;;;;;;;24.10;31.24;100451.59;1668786;85;27560;-60
2022/10/02 11:38:37;;;;;;;;;;;;;;;23.56;31.97;100446.80;1677547;84;25652;-59
2022/10/02 11:41:26;;;;;;;;;;;;;;;23.44;32.08;100446.74;1661392;85;25791;-59
2022/10/02 11:44:04;;;;;;;;;;;;;;;23.52;32.02;100464.82;1674758;85;26170;-61
2022/10/02 11:46:53;;;;;;;;;;;;;;;23.68;32.58;100472.42;1672075;85;25820;-61
2022/10/02 11:49:29;;;;;;;;;;;;;;;23.94;31.38;100444.84;1676814;85;27553;-60
2022/10/02 11:52:09;;;;;;;;;;;;;;;23.86;31.43;100463.30;1677108;85;25819;-60
2022/10/02 11:54:53;;;;;;;;;;;;;;;24.06;31.29;100459.47;1671409;84;25844;-60
2022/10/02 11:57:40;;;;;;;;;;;;;;;24.02;30.62;100470.64;1684162;84;26127;-59
2022/10/02 12:00:13;;;;;;;;;;;;;;;23.95;31.39;100474.85;1691185;84;25621;-61
2022/10/02 12:03:00;;;;;;;;;;;;;;;24.27;30.99;100482.83;1690933;84;27484;-61
2022/10/02 12:05:54;;;;;;;;;;;;;;;24.37;30.42;100474.86;1687169;84;25722;-60
2022/10/02 12:08:40;;;;;;;;;;;;;;;24.62;30.55;100468.88;1690179;84;25694;-62
2022/10/02 12:11:25;;;;;;;;;;;;;;;24.52;29.98;100467.55;1687178;84;26617;-61
2022/10/02 12:14:19;;;;;;;;;;;;;;;24.77;30.22;100486.32;1685471;84;25756;-61
2022/10/02 12:17:11;;;;;;;;;;;;;;;24.90;30.18;100465.44;1689249;84;27521;-60
2022/10/02 12:26:57;;;;;;;;;;;;;;;25.40;29.88;100456.40;1688216;84;25739;-60
2022/10/02 12:28:24;;;;;;;;;;;;;;;24.27;30.43;100456.72;1675035;84;25795;-61
2022/10/02 12:31:09;;;;;;;;;;;;;;;24.73;29.66;100454.33;1705164;83;27562;-60
2022/10/02 12:33:54;;;;;;;;;;;;;;;25.35;29.42;100451.59;1664378;84;26802;-61
2022/10/02 12:36:55;;;;;;;;;;;;;;;26.07;28.29;100459.08;1691294;84;25419;-61
2022/10/02 12:39:40;;;;;;;;;;;;;;;26.58;27.29;100450.07;1698660;84;28292;-61
2022/10/02 12:42:44;;;;;;;;;;;;;;;27.03;26.60;100443.58;1706700;84;25784;-60
2022/10/02 12:45:47;;;;;;;;;;;;;;;26.57;27.82;100450.59;1707061;84;27882;-60
2022/10/02 12:48:30;;;;;;;;;;;;;;;27.40;26.36;100454.02;1706909;84;25795;-62
2022/10/02 12:51:04;;;;;;;;;;;;;;;28.22;25.76;100458.31;1706894;84;25799;-60
2022/10/02 12:53:37;;;;;;;;;;;;;;;28.76;24.10;100443.27;1706905;84;26109;-61
2022/10/02 12:56:29;;;;;;;;;;;;;;;29.32;24.35;100438.62;1701061;84;26511;-61
2022/10/02 12:58:59;;;;;;;;;;;;;;;29.80;23.30;100431.04;1684636;84;28164;-61
2022/10/02 13:01:46;;;;;;;;;;;;;;;29.68;23.76;100448.45;1683993;85;25821;-61
2022/10/02 13:04:36;;;;;;;;;;;;;;;29.04;23.63;100437.92;1680355;85;25623;-62
2022/10/02 13:07:09;;;;;;;;;;;;;;;29.48;23.34;100435.38;1658212;85;26174;-62
2022/10/02 13:09:39;;;;;;;;;;;;;;;30.47;22.89;100433.64;1679063;85;26167;-61
2022/10/02 13:12:38;;;;;;;;;;;;;;;31.30;22.14;100432.95;1677105;85;27545;-61
2022/10/02 13:15:24;;;;;;;;;;;;;;;31.86;21.40;100436.03;1678574;85;25920;-60
2022/10/02 13:18:15;;;;;;;;;;;;;;;32.50;20.63;100424.99;1681128;85;25964;-62
2022/10/02 13:20:51;;;;;;;;;;;;;;;32.53;19.70;100438.89;1680679;85;26119;-61
2022/10/02 13:23:39;;;;;;;;;;;;;;;32.37;20.49;100433.46;1681049;85;25753;-61
2022/10/02 13:26:28;;;;;;;;;;;;;;;31.33;21.13;100437.95;1681094;85;27685;-61
2022/10/02 13:29:18;;;;;;;;;;;;;;;30.81;21.54;100433.06;1657537;85;25983;-61
2022/10/02 13:32:03;;;;;;;;;;;;;;;29.97;22.37;100435.00;1683245;85;25762;-62
2022/10/02 13:34:40;;;;;;;;;;;;;;;28.80;23.38;100444.42;1683155;85;26147;-61
2022/10/02 13:37:40;;;;;;;;;;;;;;;27.51;24.39;100444.52;1681850;84;25822;-60
2022/10/02 13:40:20;;;;;;;;;;;;;;;26.50;25.58;100448.55;1703059;83;27512;-60
2022/10/02 13:43:15;;;;;;;;;;;;;;;25.52;27.09;100453.61;1676893;85;25805;-60
2022/10/02 13:46:16;;;;;;;;;;;;;;;24.69;28.68;100460.00;1677145;85;25726;-61
2022/10/02 13:49:09;;;;;;;;;;;;;;;24.22;30.02;100462.09;1676397;85;26133;-60
2022/10/02 13:51:45;;;;;;;;;;;;;;;23.97;30.52;100474.61;1677192;85;25769;-61
2022/10/02 13:54:41;;;;;;;;;;;;;;;23.54;31.31;100472.27;1677387;85;28360;-61